createdAt,value
2022-11-05T00:01:25.031Z,39.30
2022-11-05T00:04:11.538Z,39.80
2022-11-05T00:06:59.453Z,37.00
2022-11-05T00:09:30.166Z,38.30
2022-11-05T00:12:19.517Z,40.00
2022-11-05T00:15:06.555Z,38.30
2022-11-05T00:17:34.769Z,35.60
2022-11-05T00:20:02.947Z,36.50
2022-11-05T00:22:49.612Z,38.20
2022-11-05T00:25:19.051Z,40.00
2022-11-05T00:27:49.764Z,38.60
2022-11-05T00:30:20.801Z,37.80
2022-11-05T00:32:50.497Z,37.20
2022-11-05T00:35:20.680Z,37.80
2022-11-05T00:37:50.294Z,39.60
2022-11-05T00:40:18.811Z,41.50
2022-11-05T00:43:05.236Z,41.50
2022-11-05T00:45:33.111Z,42.00
2022-11-05T00:48:19.428Z,52.00
2022-11-05T00:50:47.277Z,88.10
2022-11-05T00:53:15.138Z,84.50
2022-11-05T00:55:45.122Z,86.00
2022-11-05T00:58:16.123Z,73.90
2022-11-05T01:00:48.930Z,73.50
2022-11-05T01:03:18.913Z,58.30
2022-11-05T01:05:49.499Z,54.10
2022-11-05T01:08:19.848Z,47.60
2022-11-05T01:10:56.521Z,41.70
2022-11-05T01:13:28.033Z,40.50
2022-11-05T01:15:57.048Z,41.00
2022-11-05T01:18:25.398Z,41.90
2022-11-05T01:20:53.296Z,40.90
2022-11-05T01:23:21.490Z,40.10
2022-11-05T01:25:49.634Z,38.80
2022-11-05T01:28:17.525Z,38.10
2022-11-05T01:30:45.355Z,39.20
2022-11-05T01:33:13.552Z,38.20
2022-11-05T01:35:41.707Z,37.80
2022-11-05T01:38:09.471Z,38.00
2022-11-05T01:40:37.440Z,37.90
2022-11-05T01:43:14.546Z,36.30
2022-11-05T01:45:44.590Z,35.20
2022-11-05T01:48:38.630Z,35.60
2022-11-05T01:51:13.931Z,37.50
2022-11-05T01:53:48.795Z,36.40
2022-11-05T01:56:38.218Z,37.00
2022-11-05T01:59:15.287Z,37.70
2022-11-05T02:01:43.333Z,38.40
2022-11-05T02:04:17.941Z,38.00
2022-11-05T02:06:46.821Z,40.70
2022-11-05T02:09:26.581Z,38.30
2022-11-05T02:11:54.464Z,36.60
2022-11-05T02:14:22.307Z,36.70
2022-11-05T02:17:11.112Z,38.70
2022-11-05T02:20:00.832Z,37.60
2022-11-05T02:22:56.348Z,39.20
2022-11-05T02:25:53.407Z,37.30
2022-11-05T02:28:56.763Z,36.40
2022-11-05T02:31:36.865Z,37.30
2022-11-05T02:34:23.758Z,36.90
2022-11-05T02:37:27.371Z,37.70
2022-11-05T02:40:24.005Z,38.80
2022-11-05T02:43:15.236Z,36.30
2022-11-05T02:46:15.099Z,36.40
2022-11-05T02:48:50.692Z,35.50
2022-11-05T02:51:36.234Z,36.80
2022-11-05T02:54:33.339Z,36.40
2022-11-05T02:57:03.842Z,37.50
2022-11-05T02:59:31.801Z,36.80
2022-11-05T03:02:01.735Z,36.00
2022-11-05T03:04:32.145Z,36.30
2022-11-05T03:07:14.412Z,38.50
2022-11-05T03:09:51.285Z,36.20
2022-11-05T03:12:37.076Z,36.70
2022-11-05T03:15:10.915Z,35.70
2022-11-05T03:20:46.539Z,34.20
2022-11-05T03:23:23.680Z,36.10
2022-11-05T03:26:06.605Z,39.10
2022-11-05T03:28:39.879Z,36.30
2022-11-05T03:31:08.784Z,36.00
2022-11-05T03:33:39.914Z,33.80
2022-11-05T03:36:16.218Z,32.40
2022-11-05T03:38:49.627Z,34.40
2022-11-05T03:41:19.903Z,33.30
2022-11-05T03:43:52.071Z,32.60
2022-11-05T03:46:35.092Z,34.20
2022-11-05T03:49:06.089Z,33.00
2022-11-05T03:51:46.086Z,32.00
2022-11-05T03:54:14.620Z,34.30
2022-11-05T03:56:57.781Z,32.10
2022-11-05T03:59:26.410Z,32.90
2022-11-05T04:01:55.137Z,32.70
2022-11-05T04:04:23.139Z,32.80
2022-11-05T04:07:09.750Z,32.40
2022-11-05T04:09:56.327Z,32.20
2022-11-05T04:12:42.675Z,30.90
2022-11-05T04:15:10.960Z,31.00
2022-11-05T04:17:38.801Z,31.30
2022-11-05T04:20:25.795Z,31.60
2022-11-05T04:23:24.514Z,31.20
2022-11-05T04:25:52.371Z,30.20
2022-11-05T04:28:20.152Z,30.20
2022-11-05T04:30:48.003Z,30.10
2022-11-05T04:33:17.178Z,29.70
2022-11-05T04:35:47.278Z,30.90
2022-11-05T04:38:17.530Z,30.90
2022-11-05T04:40:46.811Z,30.00
2022-11-05T04:43:19.187Z,31.90
2022-11-05T04:45:47.376Z,31.10
2022-11-05T04:48:15.246Z,31.70
2022-11-05T04:50:43.053Z,29.70
2022-11-05T04:53:11.131Z,33.40
2022-11-05T04:55:39.179Z,30.00
2022-11-05T04:58:06.955Z,31.70
2022-11-05T05:00:34.850Z,32.60
2022-11-05T05:03:02.718Z,32.30
2022-11-05T05:05:30.683Z,31.30
2022-11-05T05:08:05.177Z,32.90
2022-11-05T05:10:33.084Z,32.90
2022-11-05T05:13:01.020Z,32.00
2022-11-05T05:15:28.891Z,32.00
2022-11-05T05:17:56.843Z,32.50
2022-11-05T05:20:43.532Z,32.50
2022-11-05T05:23:11.531Z,34.60
2022-11-05T05:25:39.771Z,33.40
2022-11-05T05:28:07.711Z,32.20
2022-11-05T05:30:35.673Z,32.30
2022-11-05T05:33:04.691Z,33.80
2022-11-05T05:35:32.696Z,34.40
2022-11-05T05:38:00.529Z,33.30
2022-11-05T05:40:28.399Z,33.40
2022-11-05T05:42:56.377Z,30.90
2022-11-05T05:45:24.117Z,32.30
2022-11-05T05:47:51.999Z,32.40
2022-11-05T05:50:20.052Z,31.10
2022-11-05T05:52:47.895Z,31.40
2022-11-05T05:55:15.825Z,32.20
2022-11-05T05:57:43.628Z,31.50
2022-11-05T06:00:12.415Z,29.50
2022-11-05T06:02:40.455Z,30.20
2022-11-05T06:05:08.773Z,29.30
2022-11-05T06:07:37.576Z,28.10
2022-11-05T06:10:06.419Z,28.70
2022-11-05T06:12:34.271Z,28.90
2022-11-05T06:15:02.240Z,30.60
2022-11-05T06:17:30.174Z,27.40
2022-11-05T06:19:58.125Z,28.80
2022-11-05T06:22:26.044Z,27.30
2022-11-05T06:24:53.918Z,29.30
2022-11-05T06:27:21.964Z,29.20
2022-11-05T06:29:49.879Z,29.30
2022-11-05T06:32:17.710Z,28.80
2022-11-05T06:34:45.660Z,29.20
2022-11-05T06:37:13.621Z,28.90
2022-11-05T06:39:41.606Z,28.70
2022-11-05T06:42:18.393Z,28.30
2022-11-05T06:44:46.933Z,27.40
2022-11-05T06:47:14.961Z,28.30
2022-11-05T06:49:42.853Z,29.30
2022-11-05T06:52:11.165Z,29.30
2022-11-05T06:54:39.658Z,28.40
2022-11-05T06:57:09.994Z,27.20
2022-11-05T06:59:39.478Z,28.20
2022-11-05T07:02:10.549Z,29.10
2022-11-05T07:04:38.521Z,28.50
2022-11-05T07:07:06.422Z,27.30
2022-11-05T07:09:34.331Z,28.00
2022-11-05T07:12:02.183Z,27.40
2022-11-05T07:14:30.043Z,27.70
2022-11-05T07:16:58.122Z,26.90
2022-11-05T07:19:26.014Z,28.80
2022-11-05T07:21:53.836Z,27.00
2022-11-05T07:24:21.764Z,29.70
2022-11-05T07:26:49.632Z,28.90
2022-11-05T07:29:17.558Z,28.60
2022-11-05T07:31:46.989Z,28.40
2022-11-05T07:34:14.913Z,28.60
2022-11-05T07:36:42.828Z,30.00
2022-11-05T07:39:10.749Z,30.00
2022-11-05T07:41:38.616Z,27.40
2022-11-05T07:44:06.498Z,28.10
2022-11-05T07:46:34.427Z,28.10
2022-11-05T07:49:02.382Z,28.10
2022-11-05T07:51:30.286Z,27.30
2022-11-05T07:53:58.084Z,27.90
2022-11-05T07:56:26.215Z,27.70
2022-11-05T07:58:54.075Z,27.80
2022-11-05T08:01:22.194Z,28.80
2022-11-05T08:03:50.320Z,27.00
2022-11-05T08:06:18.333Z,27.00
2022-11-05T08:08:46.200Z,28.00
2022-11-05T08:11:14.074Z,26.50
2022-11-05T08:13:44.271Z,27.00
2022-11-05T08:16:12.296Z,26.80
2022-11-05T08:18:40.173Z,26.50
2022-11-05T08:21:09.113Z,26.00
2022-11-05T08:23:38.681Z,26.90
2022-11-05T08:26:06.648Z,25.70
2022-11-05T08:28:34.470Z,25.60
2022-11-05T08:31:02.548Z,24.40
2022-11-05T08:33:31.571Z,25.50
2022-11-05T08:36:03.422Z,25.80
2022-11-05T08:38:31.467Z,25.10
2022-11-05T08:40:59.450Z,23.50
2022-11-05T08:43:27.381Z,23.90
2022-11-05T08:45:55.331Z,25.40
2022-11-05T08:48:23.175Z,25.30
2022-11-05T08:50:51.019Z,23.10
2022-11-05T08:53:19.039Z,23.80
2022-11-05T08:55:49.986Z,23.10
2022-11-05T08:58:18.307Z,23.20
2022-11-05T09:00:48.333Z,23.70
2022-11-05T09:03:16.737Z,23.70
2022-11-05T09:05:44.664Z,24.40
2022-11-05T09:08:22.013Z,24.50
2022-11-05T09:10:50.053Z,22.70
2022-11-05T09:13:19.890Z,21.50
2022-11-05T09:15:49.636Z,21.40
2022-11-05T09:18:18.827Z,21.40
2022-11-05T09:20:47.326Z,20.60
2022-11-05T09:23:15.710Z,21.40
2022-11-05T09:25:44.752Z,21.70
2022-11-05T09:28:16.860Z,21.30
2022-11-05T09:30:47.805Z,20.30
2022-11-05T09:33:17.132Z,20.60
2022-11-05T09:35:46.067Z,20.50
2022-11-05T09:38:14.014Z,20.10
2022-11-05T09:40:59.826Z,20.30
2022-11-05T09:43:51.701Z,20.90
2022-11-05T09:46:24.279Z,20.00
2022-11-05T09:49:12.341Z,20.60
2022-11-05T09:51:41.478Z,20.40
2022-11-05T09:54:13.043Z,19.70
2022-11-05T09:56:42.178Z,19.30
2022-11-05T09:59:18.539Z,19.20
2022-11-05T10:01:47.385Z,18.90
2022-11-05T10:04:22.742Z,18.70
2022-11-05T10:07:00.649Z,18.90
2022-11-05T10:09:36.777Z,20.30
2022-11-05T10:12:26.382Z,19.00
2022-11-05T10:15:15.887Z,19.90
2022-11-05T10:17:49.232Z,19.80
2022-11-05T10:20:35.316Z,19.30
2022-11-05T10:23:15.320Z,19.30
2022-11-05T10:25:52.908Z,18.80
2022-11-05T10:28:26.843Z,19.70
2022-11-05T10:31:04.949Z,19.30
2022-11-05T10:33:39.332Z,18.40
2022-11-05T10:36:11.706Z,20.10
2022-11-05T10:38:39.581Z,19.10
2022-11-05T10:41:07.488Z,20.30
2022-11-05T10:43:48.112Z,19.10
2022-11-05T10:46:35.457Z,19.50
2022-11-05T10:49:26.544Z,19.70
2022-11-05T10:51:57.315Z,20.20
2022-11-05T10:54:32.075Z,20.00
2022-11-05T10:57:00.024Z,19.80
2022-11-05T10:59:30.334Z,19.30
2022-11-05T11:02:25.929Z,18.40
2022-11-05T11:04:56.589Z,18.90
2022-11-05T11:07:26.094Z,18.50
2022-11-05T11:09:54.085Z,18.60
2022-11-05T11:12:26.202Z,17.90
2022-11-05T11:15:02.855Z,18.70
2022-11-05T11:17:32.629Z,18.50
2022-11-05T11:20:19.888Z,17.20
2022-11-05T11:23:13.126Z,16.90
2022-11-05T11:25:52.903Z,20.60
2022-11-05T11:28:26.485Z,23.90
2022-11-05T11:31:01.548Z,22.90
2022-11-05T11:33:29.954Z,22.50
2022-11-05T11:35:58.516Z,22.50
2022-11-05T11:38:30.805Z,28.10
2022-11-05T11:41:36.502Z,28.70
2022-11-05T11:44:15.122Z,25.40
2022-11-05T11:46:48.822Z,23.10
2022-11-05T11:49:38.521Z,23.80
2022-11-05T11:52:17.176Z,22.80
2022-11-05T11:54:45.415Z,21.10
2022-11-05T11:57:26.135Z,21.90
2022-11-05T12:00:11.814Z,21.40
2022-11-05T12:03:06.832Z,18.60
2022-11-05T12:05:46.804Z,18.50
2022-11-05T12:09:06.761Z,18.10
2022-11-05T12:11:51.811Z,18.70
2022-11-05T12:14:46.293Z,18.80
2022-11-05T12:17:23.533Z,16.90
2022-11-05T12:20:11.585Z,18.00
2022-11-05T12:23:04.409Z,17.40
2022-11-05T12:26:10.962Z,17.90
2022-11-05T12:29:16.588Z,17.30
2022-11-05T12:31:53.704Z,18.20
2022-11-05T12:34:37.606Z,17.10
2022-11-05T12:37:39.582Z,17.20
2022-11-05T12:40:07.464Z,17.00
2022-11-05T12:43:17.829Z,16.70
2022-11-05T12:45:49.056Z,17.10
2022-11-05T12:48:39.790Z,17.50
2022-11-05T12:51:22.791Z,16.90
2022-11-05T12:54:08.948Z,18.40
2022-11-05T12:56:42.017Z,17.70
2022-11-05T12:59:54.278Z,18.30
2022-11-05T13:02:44.865Z,18.80
2022-11-05T13:05:18.534Z,18.70
2022-11-05T13:10:34.303Z,17.70
2022-11-05T13:13:11.474Z,18.80
2022-11-05T13:15:47.807Z,19.20
2022-11-05T13:18:21.514Z,19.00
2022-11-05T13:23:31.269Z,19.70
2022-11-05T13:26:19.489Z,19.50
2022-11-05T13:29:03.849Z,20.10
2022-11-05T13:34:13.506Z,19.20
2022-11-05T13:37:17.781Z,19.70
2022-11-05T13:39:48.273Z,19.50
2022-11-05T13:42:34.590Z,20.40
2022-11-05T13:45:23.811Z,20.30
2022-11-05T13:48:20.594Z,21.00
2022-11-05T13:51:16.476Z,20.10
2022-11-05T13:54:07.855Z,21.70
2022-11-05T13:56:55.049Z,19.90
2022-11-05T13:59:52.145Z,20.30
2022-11-05T14:02:28.570Z,20.70
2022-11-05T14:05:01.211Z,19.40
2022-11-05T14:07:33.203Z,20.60
2022-11-05T14:10:15.899Z,20.30
2022-11-05T14:12:50.257Z,19.80
2022-11-05T14:15:23.567Z,21.50
2022-11-05T14:18:03.653Z,21.40
2022-11-05T14:20:31.458Z,20.00
2022-11-05T14:23:17.488Z,21.20
2022-11-05T14:25:45.316Z,21.10
2022-11-05T14:28:36.438Z,21.90
2022-11-05T14:31:19.780Z,21.10
2022-11-05T14:34:23.947Z,21.80
2022-11-05T14:37:10.350Z,22.20
2022-11-05T14:39:39.282Z,22.90
2022-11-05T14:42:11.917Z,22.30
2022-11-05T14:44:58.402Z,22.00
2022-11-05T14:47:30.731Z,23.00
2022-11-05T14:50:01.595Z,23.80
2022-11-05T14:52:29.559Z,23.60
2022-11-05T14:54:58.539Z,24.40
2022-11-05T14:57:44.749Z,25.30
2022-11-05T15:00:36.586Z,24.30
2022-11-05T15:03:32.447Z,25.50
2022-11-05T15:06:22.212Z,24.80
2022-11-05T15:08:50.199Z,25.40
2022-11-05T15:11:20.741Z,27.00
2022-11-05T15:13:54.769Z,26.80
2022-11-05T15:16:31.588Z,28.60
2022-11-05T15:19:00.240Z,28.50
2022-11-05T15:21:34.227Z,29.30
2022-11-05T15:26:40.240Z,32.50
2022-11-05T15:29:34.684Z,42.00
2022-11-05T15:32:02.942Z,122.40
2022-11-05T15:34:33.864Z,51.00
2022-11-05T15:37:11.031Z,29.00
2022-11-05T15:39:39.958Z,34.20
2022-11-05T15:42:22.969Z,31.90
2022-11-05T15:44:56.968Z,31.30
2022-11-05T15:47:30.283Z,49.80
2022-11-05T15:50:01.501Z,67.30
2022-11-05T15:52:42.162Z,50.10
2022-11-05T15:55:12.993Z,48.40
2022-11-05T15:57:50.409Z,38.00
2022-11-05T16:00:22.502Z,34.70
2022-11-05T16:03:04.590Z,32.20
2022-11-05T16:05:42.235Z,32.10
2022-11-05T16:08:22.499Z,33.10
2022-11-05T16:10:53.520Z,38.30
2022-11-05T16:13:41.691Z,32.30
2022-11-05T16:16:15.647Z,32.50
2022-11-05T16:18:45.400Z,27.50
2022-11-05T16:21:17.662Z,28.10
2022-11-05T16:23:55.666Z,30.80
2022-11-05T16:27:00.536Z,29.50
2022-11-05T16:29:34.842Z,30.70
2022-11-05T16:32:05.849Z,31.70
2022-11-05T16:34:38.637Z,31.40
2022-11-05T16:37:10.593Z,33.20
2022-11-05T16:39:38.482Z,32.80
2022-11-05T16:42:26.101Z,31.50
2022-11-05T16:44:55.359Z,32.80
2022-11-05T16:47:23.612Z,31.10
2022-11-05T16:49:51.994Z,32.20
2022-11-05T16:52:20.002Z,35.20
2022-11-05T16:54:47.906Z,32.30
2022-11-05T16:57:18.880Z,32.60
2022-11-05T16:59:46.774Z,33.30
2022-11-05T17:02:14.940Z,34.70
2022-11-05T17:04:42.975Z,31.60
2022-11-05T17:07:10.810Z,30.80
2022-11-05T17:09:38.764Z,31.30
2022-11-05T17:12:11.638Z,30.90
2022-11-05T17:14:39.491Z,33.20
2022-11-05T17:17:07.505Z,31.70
2022-11-05T17:19:35.521Z,33.40
2022-11-05T17:22:03.436Z,34.00
2022-11-05T17:24:31.411Z,35.10
2022-11-05T17:26:59.294Z,49.00
2022-11-05T17:29:27.087Z,38.30
2022-11-05T17:31:56.791Z,36.70
2022-11-05T17:34:24.657Z,36.40
2022-11-05T17:36:52.496Z,35.80
2022-11-05T17:39:20.375Z,34.10
2022-11-05T17:41:48.901Z,33.70
2022-11-05T17:44:16.811Z,33.70
2022-11-05T17:46:44.644Z,32.30
2022-11-05T17:49:12.553Z,33.40
2022-11-05T17:51:40.459Z,34.20
2022-11-05T17:54:08.259Z,32.90
2022-11-05T17:56:40.253Z,34.00
2022-11-05T17:59:11.291Z,33.70
2022-11-05T18:01:43.454Z,31.20
2022-11-05T18:04:11.946Z,34.50
2022-11-05T18:06:40.998Z,32.20
2022-11-05T18:09:10.999Z,33.30
2022-11-05T18:11:40.112Z,33.80
2022-11-05T18:14:09.172Z,32.40
2022-11-05T18:16:37.142Z,33.20
2022-11-05T18:19:05.147Z,33.40
2022-11-05T18:21:33.091Z,32.50
2022-11-05T18:24:06.191Z,32.10
2022-11-05T18:26:34.994Z,31.60
2022-11-05T18:29:05.440Z,33.20
2022-11-05T18:31:33.359Z,32.30
2022-11-05T18:34:01.276Z,34.20
2022-11-05T18:36:31.092Z,33.00
2022-11-05T18:39:02.219Z,32.40
2022-11-05T18:41:30.497Z,31.50
2022-11-05T18:44:00.035Z,34.00
2022-11-05T18:46:56.679Z,33.20
2022-11-05T18:49:17.989Z,36.80
2022-11-05T18:51:46.174Z,38.30
2022-11-05T18:54:13.967Z,37.20
2022-11-05T18:56:45.552Z,35.20
2022-11-05T18:59:35.566Z,37.00
2022-11-05T19:02:04.287Z,37.70
2022-11-05T19:04:32.293Z,38.80
2022-11-05T19:07:04.399Z,39.10
2022-11-05T19:09:36.910Z,38.70
2022-11-05T19:12:06.422Z,38.20
2022-11-05T19:14:35.367Z,38.60
2022-11-05T19:17:04.277Z,37.60
2022-11-05T19:19:32.163Z,38.00
2022-11-05T19:22:00.045Z,36.90
2022-11-05T19:24:28.339Z,37.20
2022-11-05T19:26:56.596Z,36.50
2022-11-05T19:29:24.471Z,35.50
2022-11-05T19:31:52.439Z,36.20
2022-11-05T19:34:20.690Z,36.30
2022-11-05T19:36:48.657Z,37.80
2022-11-05T19:39:16.564Z,34.90
2022-11-05T19:41:44.507Z,36.90
2022-11-05T19:44:12.444Z,37.60
2022-11-05T19:46:40.347Z,37.50
2022-11-05T19:49:08.126Z,35.70
2022-11-05T19:51:36.534Z,36.60
2022-11-05T19:54:05.089Z,36.70
2022-11-05T19:56:35.044Z,37.20
2022-11-05T19:59:04.386Z,35.70
2022-11-05T20:01:33.429Z,36.20
2022-11-05T20:04:05.594Z,36.90
2022-11-05T20:06:37.898Z,36.10
2022-11-05T20:09:25.807Z,37.10
2022-11-05T20:11:56.293Z,36.00
2022-11-05T20:14:25.791Z,35.50
2022-11-05T20:16:54.553Z,34.40
2022-11-05T20:19:23.055Z,37.00
2022-11-05T20:21:51.241Z,35.60
2022-11-05T20:24:24.770Z,35.40
2022-11-05T20:26:55.269Z,35.40
2022-11-05T20:29:27.846Z,35.40
2022-11-05T20:31:58.654Z,34.40
2022-11-05T20:34:28.869Z,35.60
2022-11-05T20:36:56.724Z,37.50
2022-11-05T20:39:24.652Z,39.00
2022-11-05T20:41:53.468Z,37.70
2022-11-05T20:44:21.319Z,38.60
2022-11-05T20:46:49.231Z,37.70
2022-11-05T20:49:21.270Z,37.60
2022-11-05T20:51:51.902Z,35.50
2022-11-05T20:54:19.823Z,34.20
2022-11-05T20:56:47.605Z,32.40
2022-11-05T20:59:15.685Z,35.00
2022-11-05T21:01:43.929Z,34.70
2022-11-05T21:04:12.060Z,33.20
2022-11-05T21:06:39.945Z,34.40
2022-11-05T21:09:07.897Z,33.80
2022-11-05T21:11:54.316Z,33.80
2022-11-05T21:14:22.158Z,34.20
2022-11-05T21:16:49.983Z,34.20
2022-11-05T21:19:17.819Z,34.60
2022-11-05T21:21:45.707Z,33.50
2022-11-05T21:24:13.652Z,34.20
2022-11-05T21:26:41.513Z,34.80
2022-11-05T21:29:09.453Z,34.40
2022-11-05T21:31:37.697Z,34.00
2022-11-05T21:34:05.649Z,35.10
2022-11-05T21:36:34.130Z,35.00
2022-11-05T21:39:02.530Z,37.10
2022-11-05T21:41:30.468Z,36.60
2022-11-05T21:43:58.526Z,35.60
2022-11-05T21:46:26.403Z,36.00
2022-11-05T21:48:54.269Z,43.50
2022-11-05T21:51:41.704Z,54.60
2022-11-05T21:54:29.892Z,52.10
2022-11-05T21:57:16.330Z,57.70
2022-11-05T21:59:55.276Z,54.80
2022-11-05T22:02:25.039Z,54.90
2022-11-05T22:04:56.333Z,50.00
2022-11-05T22:07:28.252Z,49.80
2022-11-05T22:09:56.627Z,47.50
2022-11-05T22:12:25.438Z,44.20
2022-11-05T22:14:53.425Z,43.10
2022-11-05T22:17:21.845Z,43.60
2022-11-05T22:19:50.024Z,39.60
2022-11-05T22:22:18.812Z,38.80
2022-11-05T22:24:46.852Z,38.20
2022-11-05T22:27:17.929Z,38.20
2022-11-05T22:29:46.219Z,35.50
2022-11-05T22:32:15.359Z,33.20
2022-11-05T22:34:43.273Z,32.50
2022-11-05T22:37:12.900Z,31.50
2022-11-05T22:39:40.886Z,32.40
2022-11-05T22:42:09.083Z,33.50
2022-11-05T22:44:37.209Z,33.50
2022-11-05T22:47:06.147Z,34.70
2022-11-05T22:49:34.289Z,33.30
2022-11-05T22:52:02.318Z,33.80
2022-11-05T22:54:33.823Z,33.20
2022-11-05T22:57:04.351Z,35.10
2022-11-05T22:59:32.628Z,35.50
2022-11-05T23:02:05.170Z,35.80
2022-11-05T23:04:36.338Z,34.50
2022-11-05T23:07:27.335Z,34.00
2022-11-05T23:10:14.451Z,34.90
2022-11-05T23:12:43.688Z,35.60
2022-11-05T23:15:31.869Z,34.80
2022-11-05T23:18:18.388Z,33.90
2022-11-05T23:21:04.761Z,35.60
2022-11-05T23:23:51.104Z,32.50
2022-11-05T23:26:37.560Z,32.20
2022-11-05T23:29:05.446Z,30.60
2022-11-05T23:31:51.842Z,33.40
2022-11-05T23:34:19.709Z,32.60
2022-11-05T23:37:05.887Z,32.50
2022-11-05T23:39:37.005Z,32.80
2022-11-05T23:42:28.361Z,31.30
2022-11-05T23:45:15.400Z,31.00
2022-11-05T23:48:01.868Z,31.80
2022-11-05T23:50:34.451Z,32.40
2022-11-05T23:53:06.857Z,33.20
2022-11-05T23:55:34.941Z,32.70
2022-11-05T23:58:02.963Z,31.70
